sensor_id;sensor_type;location;lat;lon;timestamp;temperature;humidity
68051;DHT22;54839;51.364;7.246;2024-03-22T00:00:38;9.90;99.90
68051;DHT22;54839;51.364;7.246;2024-03-22T00:03:04;10.00;99.90
68051;DHT22;54839;51.364;7.246;2024-03-22T00:05:30;9.90;99.90
68051;DHT22;54839;51.364;7.246;2024-03-22T00:07:56;9.80;99.90
68051;DHT22;54839;51.364;7.246;2024-03-22T00:10:22;9.90;99.90
68051;DHT22;54839;51.364;7.246;2024-03-22T00:12:49;9.80;99.90
68051;DHT22;54839;51.364;7.246;2024-03-22T00:15:15;9.90;99.90
68051;DHT22;54839;51.364;7.246;2024-03-22T00:17:42;9.90;99.90
68051;DHT22;54839;51.364;7.246;2024-03-22T00:20:08;9.90;99.90
68051;DHT22;54839;51.364;7.246;2024-03-22T00:22:33;9.90;99.90
68051;DHT22;54839;51.364;7.246;2024-03-22T00:24:59;10.00;99.90
68051;DHT22;54839;51.364;7.246;2024-03-22T00:27:25;10.00;99.90
68051;DHT22;54839;51.364;7.246;2024-03-22T00:29:50;10.00;99.90
68051;DHT22;54839;51.364;7.246;2024-03-22T00:32:16;10.10;99.90
68051;DHT22;54839;51.364;7.246;2024-03-22T00:34:41;10.10;99.90
68051;DHT22;54839;51.364;7.246;2024-03-22T00:37:07;10.30;99.90
68051;DHT22;54839;51.364;7.246;2024-03-22T00:39:33;10.30;99.90
68051;DHT22;54839;51.364;7.246;2024-03-22T00:42:00;10.20;99.90
68051;DHT22;54839;51.364;7.246;2024-03-22T00:44:25;10.40;99.90
68051;DHT22;54839;51.364;7.246;2024-03-22T00:46:51;10.30;99.90
68051;DHT22;54839;51.364;7.246;2024-03-22T00:49:16;10.40;99.90
68051;DHT22;54839;51.364;7.246;2024-03-22T00:51:42;10.40;99.90
68051;DHT22;54839;51.364;7.246;2024-03-22T00:54:09;10.40;99.90
68051;DHT22;54839;51.364;7.246;2024-03-22T00:56:35;10.40;99.90
68051;DHT22;54839;51.364;7.246;2024-03-22T00:59:00;10.40;99.90
68051;DHT22;54839;51.364;7.246;2024-03-22T01:01:26;10.40;99.90
68051;DHT22;54839;51.364;7.246;2024-03-22T01:03:52;10.50;99.90
68051;DHT22;54839;51.364;7.246;2024-03-22T01:06:18;10.50;99.90
68051;DHT22;54839;51.364;7.246;2024-03-22T01:08:49;10.50;99.90
68051;DHT22;54839;51.364;7.246;2024-03-22T01:11:15;10.60;99.90
68051;DHT22;54839;51.364;7.246;2024-03-22T01:13:40;10.70;99.90
68051;DHT22;54839;51.364;7.246;2024-03-22T01:16:06;10.70;99.90
68051;DHT22;54839;51.364;7.246;2024-03-22T01:18:37;10.60;99.90
68051;DHT22;54839;51.364;7.246;2024-03-22T01:21:03;10.60;99.90
68051;DHT22;54839;51.364;7.246;2024-03-22T01:23:30;10.60;99.90
68051;DHT22;54839;51.364;7.246;2024-03-22T01:25:56;10.70;99.90
68051;DHT22;54839;51.364;7.246;2024-03-22T01:28:22;10.70;99.90
68051;DHT22;54839;51.364;7.246;2024-03-22T01:30:48;10.70;99.90
68051;DHT22;54839;51.364;7.246;2024-03-22T01:33:13;10.70;99.90
68051;DHT22;54839;51.364;7.246;2024-03-22T01:35:39;10.70;99.90
68051;DHT22;54839;51.364;7.246;2024-03-22T01:38:05;10.70;99.90
68051;DHT22;54839;51.364;7.246;2024-03-22T01:40:30;10.70;99.90
68051;DHT22;54839;51.364;7.246;2024-03-22T01:42:57;10.80;99.90
68051;DHT22;54839;51.364;7.246;2024-03-22T01:45:23;10.80;99.90
68051;DHT22;54839;51.364;7.246;2024-03-22T01:47:53;10.70;99.90
68051;DHT22;54839;51.364;7.246;2024-03-22T01:50:22;10.70;99.90
68051;DHT22;54839;51.364;7.246;2024-03-22T01:52:48;10.70;99.90
68051;DHT22;54839;51.364;7.246;2024-03-22T01:55:14;10.70;99.90
68051;DHT22;54839;51.364;7.246;2024-03-22T01:57:40;10.70;99.90
68051;DHT22;54839;51.364;7.246;2024-03-22T02:00:07;10.80;99.90
68051;DHT22;54839;51.364;7.246;2024-03-22T02:02:34;10.80;99.90
68051;DHT22;54839;51.364;7.246;2024-03-22T02:05:17;10.70;99.90
68051;DHT22;54839;51.364;7.246;2024-03-22T02:07:47;10.80;99.90
68051;DHT22;54839;51.364;7.246;2024-03-22T02:10:13;10.80;99.90
68051;DHT22;54839;51.364;7.246;2024-03-22T02:12:40;10.80;99.90
68051;DHT22;54839;51.364;7.246;2024-03-22T02:15:07;10.80;99.90
68051;DHT22;54839;51.364;7.246;2024-03-22T02:17:34;10.80;99.90
68051;DHT22;54839;51.364;7.246;2024-03-22T02:20:00;10.80;99.90
68051;DHT22;54839;51.364;7.246;2024-03-22T02:22:26;10.90;99.90
68051;DHT22;54839;51.364;7.246;2024-03-22T02:24:52;10.80;99.90
68051;DHT22;54839;51.364;7.246;2024-03-22T02:27:18;10.80;99.90
68051;DHT22;54839;51.364;7.246;2024-03-22T02:29:44;10.80;99.90
68051;DHT22;54839;51.364;7.246;2024-03-22T02:32:09;10.80;99.90
68051;DHT22;54839;51.364;7.246;2024-03-22T02:34:35;10.90;99.90
68051;DHT22;54839;51.364;7.246;2024-03-22T02:37:01;10.90;99.90
68051;DHT22;54839;51.364;7.246;2024-03-22T02:39:27;10.80;99.90
68051;DHT22;54839;51.364;7.246;2024-03-22T02:41:54;10.90;99.90
68051;DHT22;54839;51.364;7.246;2024-03-22T02:44:19;10.80;99.90
68051;DHT22;54839;51.364;7.246;2024-03-22T02:46:45;10.80;99.90
68051;DHT22;54839;51.364;7.246;2024-03-22T02:52:21;10.90;99.90
68051;DHT22;54839;51.364;7.246;2024-03-22T02:54:47;10.90;99.90
68051;DHT22;54839;51.364;7.246;2024-03-22T02:57:12;10.90;99.90
68051;DHT22;54839;51.364;7.246;2024-03-22T02:59:38;10.90;99.90
68051;DHT22;54839;51.364;7.246;2024-03-22T03:02:04;10.80;99.90
68051;DHT22;54839;51.364;7.246;2024-03-22T03:04:29;10.90;99.90
68051;DHT22;54839;51.364;7.246;2024-03-22T03:06:55;10.80;99.90
68051;DHT22;54839;51.364;7.246;2024-03-22T03:09:21;10.80;99.90
68051;DHT22;54839;51.364;7.246;2024-03-22T03:11:47;10.90;99.90
68051;DHT22;54839;51.364;7.246;2024-03-22T03:14:12;10.90;99.90
68051;DHT22;54839;51.364;7.246;2024-03-22T03:16:38;10.90;99.90
68051;DHT22;54839;51.364;7.246;2024-03-22T03:19:03;10.90;99.90
68051;DHT22;54839;51.364;7.246;2024-03-22T03:21:29;10.90;99.90
68051;DHT22;54839;51.364;7.246;2024-03-22T03:23:55;10.80;99.90
68051;DHT22;54839;51.364;7.246;2024-03-22T03:26:20;11.00;99.90
68051;DHT22;54839;51.364;7.246;2024-03-22T03:28:46;10.90;99.90
68051;DHT22;54839;51.364;7.246;2024-03-22T03:31:12;11.00;99.90
68051;DHT22;54839;51.364;7.246;2024-03-22T03:33:37;11.00;99.90
68051;DHT22;54839;51.364;7.246;2024-03-22T03:36:03;11.00;99.90
68051;DHT22;54839;51.364;7.246;2024-03-22T03:38:29;10.90;99.90
68051;DHT22;54839;51.364;7.246;2024-03-22T03:40:54;10.90;99.90
68051;DHT22;54839;51.364;7.246;2024-03-22T03:43:20;10.90;99.90
68051;DHT22;54839;51.364;7.246;2024-03-22T03:45:46;11.00;99.90
68051;DHT22;54839;51.364;7.246;2024-03-22T03:48:11;11.00;99.90
68051;DHT22;54839;51.364;7.246;2024-03-22T03:50:37;11.00;99.90
68051;DHT22;54839;51.364;7.246;2024-03-22T03:53:02;11.00;99.90
68051;DHT22;54839;51.364;7.246;2024-03-22T03:55:28;10.90;99.90
68051;DHT22;54839;51.364;7.246;2024-03-22T03:57:53;10.90;99.90
68051;DHT22;54839;51.364;7.246;2024-03-22T04:00:20;10.80;99.90
68051;DHT22;54839;51.364;7.246;2024-03-22T04:02:45;10.80;99.90
68051;DHT22;54839;51.364;7.246;2024-03-22T04:05:11;10.80;99.90
68051;DHT22;54839;51.364;7.246;2024-03-22T04:07:37;10.80;99.90
68051;DHT22;54839;51.364;7.246;2024-03-22T04:10:05;10.70;99.90
68051;DHT22;54839;51.364;7.246;2024-03-22T04:12:31;10.70;99.90
68051;DHT22;54839;51.364;7.246;2024-03-22T04:14:56;10.80;99.90
68051;DHT22;54839;51.364;7.246;2024-03-22T04:17:22;10.70;99.90
68051;DHT22;54839;51.364;7.246;2024-03-22T04:19:49;10.70;99.90
68051;DHT22;54839;51.364;7.246;2024-03-22T04:22:15;10.70;99.90
68051;DHT22;54839;51.364;7.246;2024-03-22T04:24:41;10.70;99.90
68051;DHT22;54839;51.364;7.246;2024-03-22T04:27:06;10.70;99.90
68051;DHT22;54839;51.364;7.246;2024-03-22T04:29:33;10.70;99.90
68051;DHT22;54839;51.364;7.246;2024-03-22T04:31:58;10.70;99.90
68051;DHT22;54839;51.364;7.246;2024-03-22T04:34:24;10.70;99.90
68051;DHT22;54839;51.364;7.246;2024-03-22T04:36:50;10.60;99.90
68051;DHT22;54839;51.364;7.246;2024-03-22T04:39:19;10.60;99.90
68051;DHT22;54839;51.364;7.246;2024-03-22T04:41:44;10.60;99.90
68051;DHT22;54839;51.364;7.246;2024-03-22T04:44:10;10.50;99.90
68051;DHT22;54839;51.364;7.246;2024-03-22T04:46:35;10.50;99.90
68051;DHT22;54839;51.364;7.246;2024-03-22T04:49:01;10.50;99.90
68051;DHT22;54839;51.364;7.246;2024-03-22T04:51:26;10.50;99.90
68051;DHT22;54839;51.364;7.246;2024-03-22T04:53:52;10.60;99.90
68051;DHT22;54839;51.364;7.246;2024-03-22T04:56:18;10.60;99.90
68051;DHT22;54839;51.364;7.246;2024-03-22T04:58:43;10.60;99.90
68051;DHT22;54839;51.364;7.246;2024-03-22T05:01:09;10.60;99.90
68051;DHT22;54839;51.364;7.246;2024-03-22T05:03:36;10.60;99.90
68051;DHT22;54839;51.364;7.246;2024-03-22T05:06:02;10.50;99.90
68051;DHT22;54839;51.364;7.246;2024-03-22T05:08:29;10.60;99.90
68051;DHT22;54839;51.364;7.246;2024-03-22T05:10:54;10.60;99.90
68051;DHT22;54839;51.364;7.246;2024-03-22T05:13:20;10.70;99.90
68051;DHT22;54839;51.364;7.246;2024-03-22T05:15:46;10.60;99.90
68051;DHT22;54839;51.364;7.246;2024-03-22T05:18:12;10.70;99.90
68051;DHT22;54839;51.364;7.246;2024-03-22T05:20:37;10.80;99.90
68051;DHT22;54839;51.364;7.246;2024-03-22T05:23:03;10.90;99.90
68051;DHT22;54839;51.364;7.246;2024-03-22T05:25:29;10.80;99.90
68051;DHT22;54839;51.364;7.246;2024-03-22T05:27:54;10.80;99.90
68051;DHT22;54839;51.364;7.246;2024-03-22T05:30:20;10.80;99.90
68051;DHT22;54839;51.364;7.246;2024-03-22T05:32:46;10.90;99.90
68051;DHT22;54839;51.364;7.246;2024-03-22T05:35:11;10.80;99.90
68051;DHT22;54839;51.364;7.246;2024-03-22T05:37:37;10.80;99.90
68051;DHT22;54839;51.364;7.246;2024-03-22T05:40:03;10.90;99.90
68051;DHT22;54839;51.364;7.246;2024-03-22T05:42:32;11.00;99.90
68051;DHT22;54839;51.364;7.246;2024-03-22T05:44:57;10.90;99.90
68051;DHT22;54839;51.364;7.246;2024-03-22T05:47:23;11.10;99.90
68051;DHT22;54839;51.364;7.246;2024-03-22T05:49:49;11.00;99.90
68051;DHT22;54839;51.364;7.246;2024-03-22T05:52:14;11.00;99.90
68051;DHT22;54839;51.364;7.246;2024-03-22T05:54:40;11.00;99.90
68051;DHT22;54839;51.364;7.246;2024-03-22T05:57:06;11.10;99.90
68051;DHT22;54839;51.364;7.246;2024-03-22T05:59:32;11.10;99.90
68051;DHT22;54839;51.364;7.246;2024-03-22T06:01:58;11.10;99.90
68051;DHT22;54839;51.364;7.246;2024-03-22T06:04:23;11.10;99.90
68051;DHT22;54839;51.364;7.246;2024-03-22T06:06:49;11.20;99.90
68051;DHT22;54839;51.364;7.246;2024-03-22T06:09:15;11.10;99.90
68051;DHT22;54839;51.364;7.246;2024-03-22T06:11:52;11.10;99.90
68051;DHT22;54839;51.364;7.246;2024-03-22T06:14:18;11.20;99.90
68051;DHT22;54839;51.364;7.246;2024-03-22T06:16:43;11.20;99.90
68051;DHT22;54839;51.364;7.246;2024-03-22T06:19:09;11.30;99.90
68051;DHT22;54839;51.364;7.246;2024-03-22T06:21:35;11.20;99.90
68051;DHT22;54839;51.364;7.246;2024-03-22T06:24:01;11.30;99.90
68051;DHT22;54839;51.364;7.246;2024-03-22T06:26:26;11.40;99.90
68051;DHT22;54839;51.364;7.246;2024-03-22T06:28:52;11.30;99.90
68051;DHT22;54839;51.364;7.246;2024-03-22T06:31:17;11.50;99.90
68051;DHT22;54839;51.364;7.246;2024-03-22T06:33:43;11.50;99.90
68051;DHT22;54839;51.364;7.246;2024-03-22T06:36:08;11.60;99.90
68051;DHT22;54839;51.364;7.246;2024-03-22T06:38:34;11.60;99.90
68051;DHT22;54839;51.364;7.246;2024-03-22T06:41:00;11.70;99.90
68051;DHT22;54839;51.364;7.246;2024-03-22T06:43:25;11.70;99.90
68051;DHT22;54839;51.364;7.246;2024-03-22T06:45:51;11.80;99.90
68051;DHT22;54839;51.364;7.246;2024-03-22T06:48:17;11.90;99.90
68051;DHT22;54839;51.364;7.246;2024-03-22T06:50:42;11.70;99.90
68051;DHT22;54839;51.364;7.246;2024-03-22T06:53:08;11.70;99.90
68051;DHT22;54839;51.364;7.246;2024-03-22T06:55:36;11.80;99.90
68051;DHT22;54839;51.364;7.246;2024-03-22T06:58:01;12.00;99.90
68051;DHT22;54839;51.364;7.246;2024-03-22T07:00:27;12.00;99.90
68051;DHT22;54839;51.364;7.246;2024-03-22T07:02:52;12.00;99.90
68051;DHT22;54839;51.364;7.246;2024-03-22T07:05:18;11.90;99.90
68051;DHT22;54839;51.364;7.246;2024-03-22T07:07:44;11.90;99.90
68051;DHT22;54839;51.364;7.246;2024-03-22T07:10:09;11.90;99.90
68051;DHT22;54839;51.364;7.246;2024-03-22T07:12:35;11.90;99.90
68051;DHT22;54839;51.364;7.246;2024-03-22T07:15:01;11.90;99.90
68051;DHT22;54839;51.364;7.246;2024-03-22T07:17:28;11.90;99.90
68051;DHT22;54839;51.364;7.246;2024-03-22T07:19:54;11.90;99.90
68051;DHT22;54839;51.364;7.246;2024-03-22T07:22:20;11.90;99.90
68051;DHT22;54839;51.364;7.246;2024-03-22T07:24:46;11.90;99.90
68051;DHT22;54839;51.364;7.246;2024-03-22T07:27:13;12.00;99.90
68051;DHT22;54839;51.364;7.246;2024-03-22T07:29:42;12.00;99.90
68051;DHT22;54839;51.364;7.246;2024-03-22T07:32:07;12.00;99.90
68051;DHT22;54839;51.364;7.246;2024-03-22T07:34:33;12.20;99.90
68051;DHT22;54839;51.364;7.246;2024-03-22T07:36:59;12.20;99.90
68051;DHT22;54839;51.364;7.246;2024-03-22T07:39:24;12.20;99.90
68051;DHT22;54839;51.364;7.246;2024-03-22T07:41:50;12.30;99.90
68051;DHT22;54839;51.364;7.246;2024-03-22T07:44:16;12.40;99.90
68051;DHT22;54839;51.364;7.246;2024-03-22T07:46:52;12.60;99.90
68051;DHT22;54839;51.364;7.246;2024-03-22T07:49:18;12.80;99.90
68051;DHT22;54839;51.364;7.246;2024-03-22T07:51:44;12.80;99.90
68051;DHT22;54839;51.364;7.246;2024-03-22T07:54:09;12.80;99.90
68051;DHT22;54839;51.364;7.246;2024-03-22T07:56:35;12.90;99.90
68051;DHT22;54839;51.364;7.246;2024-03-22T07:59:00;13.00;99.90
68051;DHT22;54839;51.364;7.246;2024-03-22T08:01:26;13.00;99.90
68051;DHT22;54839;51.364;7.246;2024-03-22T08:03:52;13.20;99.90
68051;DHT22;54839;51.364;7.246;2024-03-22T08:06:17;13.30;99.90
68051;DHT22;54839;51.364;7.246;2024-03-22T08:08:43;13.00;99.90
68051;DHT22;54839;51.364;7.246;2024-03-22T08:11:09;13.00;99.90
68051;DHT22;54839;51.364;7.246;2024-03-22T08:13:35;12.90;99.90
68051;DHT22;54839;51.364;7.246;2024-03-22T08:16:01;12.90;99.90
68051;DHT22;54839;51.364;7.246;2024-03-22T08:18:26;13.00;99.90
68051;DHT22;54839;51.364;7.246;2024-03-22T08:20:52;13.00;99.90
68051;DHT22;54839;51.364;7.246;2024-03-22T08:23:17;12.90;99.90
68051;DHT22;54839;51.364;7.246;2024-03-22T08:25:46;13.00;99.90
68051;DHT22;54839;51.364;7.246;2024-03-22T08:28:11;13.20;99.90
68051;DHT22;54839;51.364;7.246;2024-03-22T08:30:39;13.10;99.90
68051;DHT22;54839;51.364;7.246;2024-03-22T08:33:05;13.20;99.90
68051;DHT22;54839;51.364;7.246;2024-03-22T08:35:30;13.40;99.90
68051;DHT22;54839;51.364;7.246;2024-03-22T08:37:56;13.30;99.90
68051;DHT22;54839;51.364;7.246;2024-03-22T08:40:22;13.30;99.90
68051;DHT22;54839;51.364;7.246;2024-03-22T08:42:48;13.30;99.90
68051;DHT22;54839;51.364;7.246;2024-03-22T08:45:14;13.40;99.90
68051;DHT22;54839;51.364;7.246;2024-03-22T08:47:42;13.40;99.90
68051;DHT22;54839;51.364;7.246;2024-03-22T08:50:08;13.50;99.90
68051;DHT22;54839;51.364;7.246;2024-03-22T08:52:34;13.50;99.90
68051;DHT22;54839;51.364;7.246;2024-03-22T08:55:01;13.50;99.90
68051;DHT22;54839;51.364;7.246;2024-03-22T08:57:27;13.70;99.90
68051;DHT22;54839;51.364;7.246;2024-03-22T08:59:52;13.90;99.90
68051;DHT22;54839;51.364;7.246;2024-03-22T09:02:18;14.00;99.90
68051;DHT22;54839;51.364;7.246;2024-03-22T09:04:43;14.10;99.90
68051;DHT22;54839;51.364;7.246;2024-03-22T09:07:09;14.10;99.90
68051;DHT22;54839;51.364;7.246;2024-03-22T09:09:34;14.00;99.90
68051;DHT22;54839;51.364;7.246;2024-03-22T09:12:00;14.10;99.90
68051;DHT22;54839;51.364;7.246;2024-03-22T09:14:26;14.00;99.90
68051;DHT22;54839;51.364;7.246;2024-03-22T09:16:51;14.00;99.90
68051;DHT22;54839;51.364;7.246;2024-03-22T09:19:18;13.90;99.90
68051;DHT22;54839;51.364;7.246;2024-03-22T09:21:43;13.80;99.90
68051;DHT22;54839;51.364;7.246;2024-03-22T09:24:09;13.90;99.90
68051;DHT22;54839;51.364;7.246;2024-03-22T09:26:35;14.00;99.90
68051;DHT22;54839;51.364;7.246;2024-03-22T09:29:00;13.90;99.90
68051;DHT22;54839;51.364;7.246;2024-03-22T09:31:26;14.00;99.90
68051;DHT22;54839;51.364;7.246;2024-03-22T09:33:52;14.00;99.90
68051;DHT22;54839;51.364;7.246;2024-03-22T09:36:18;14.10;99.90
68051;DHT22;54839;51.364;7.246;2024-03-22T09:38:44;14.10;99.90
68051;DHT22;54839;51.364;7.246;2024-03-22T09:41:09;14.10;99.90
68051;DHT22;54839;51.364;7.246;2024-03-22T09:43:36;14.20;99.90
68051;DHT22;54839;51.364;7.246;2024-03-22T09:46:05;14.20;99.90
68051;DHT22;54839;51.364;7.246;2024-03-22T09:48:31;14.20;99.90
68051;DHT22;54839;51.364;7.246;2024-03-22T09:50:58;14.10;99.90
68051;DHT22;54839;51.364;7.246;2024-03-22T09:53:25;14.40;99.90
68051;DHT22;54839;51.364;7.246;2024-03-22T09:55:52;14.40;99.90
68051;DHT22;54839;51.364;7.246;2024-03-22T09:58:23;14.60;99.90
68051;DHT22;54839;51.364;7.246;2024-03-22T10:00:49;14.70;99.90
68051;DHT22;54839;51.364;7.246;2024-03-22T10:03:14;14.80;99.90
68051;DHT22;54839;51.364;7.246;2024-03-22T10:05:41;14.80;99.90
68051;DHT22;54839;51.364;7.246;2024-03-22T10:08:06;14.80;99.90
68051;DHT22;54839;51.364;7.246;2024-03-22T10:10:33;14.80;99.90
68051;DHT22;54839;51.364;7.246;2024-03-22T10:13:01;14.90;99.90
68051;DHT22;54839;51.364;7.246;2024-03-22T10:15:27;14.90;99.90
68051;DHT22;54839;51.364;7.246;2024-03-22T10:17:53;15.10;99.90
68051;DHT22;54839;51.364;7.246;2024-03-22T10:20:22;15.50;99.90
68051;DHT22;54839;51.364;7.246;2024-03-22T10:23:00;15.00;99.90
68051;DHT22;54839;51.364;7.246;2024-03-22T10:25:27;14.90;99.90
68051;DHT22;54839;51.364;7.246;2024-03-22T10:27:54;15.10;99.90
68051;DHT22;54839;51.364;7.246;2024-03-22T10:30:20;15.40;99.90
68051;DHT22;54839;51.364;7.246;2024-03-22T10:32:48;15.20;99.90
68051;DHT22;54839;51.364;7.246;2024-03-22T10:35:15;15.10;99.90
68051;DHT22;54839;51.364;7.246;2024-03-22T10:37:41;15.00;99.90
68051;DHT22;54839;51.364;7.246;2024-03-22T10:40:07;15.10;99.90
68051;DHT22;54839;51.364;7.246;2024-03-22T10:42:40;15.20;99.90
68051;DHT22;54839;51.364;7.246;2024-03-22T10:45:10;15.30;99.90
68051;DHT22;54839;51.364;7.246;2024-03-22T10:47:37;15.10;99.90
68051;DHT22;54839;51.364;7.246;2024-03-22T10:50:05;15.20;99.90
68051;DHT22;54839;51.364;7.246;2024-03-22T10:52:54;15.30;99.90
68051;DHT22;54839;51.364;7.246;2024-03-22T10:55:35;15.10;99.90
68051;DHT22;54839;51.364;7.246;2024-03-22T10:58:01;15.30;99.90
68051;DHT22;54839;51.364;7.246;2024-03-22T11:00:31;15.40;99.90
68051;DHT22;54839;51.364;7.246;2024-03-22T11:02:58;15.30;99.90
68051;DHT22;54839;51.364;7.246;2024-03-22T11:05:23;15.30;99.90
68051;DHT22;54839;51.364;7.246;2024-03-22T11:08:04;15.30;99.90
68051;DHT22;54839;51.364;7.246;2024-03-22T11:10:30;15.20;99.90
68051;DHT22;54839;51.364;7.246;2024-03-22T11:13:01;15.40;99.90
68051;DHT22;54839;51.364;7.246;2024-03-22T11:15:29;15.40;99.90
68051;DHT22;54839;51.364;7.246;2024-03-22T11:17:55;15.50;99.90
68051;DHT22;54839;51.364;7.246;2024-03-22T11:20:21;15.70;99.90
68051;DHT22;54839;51.364;7.246;2024-03-22T11:22:47;15.70;99.90
68051;DHT22;54839;51.364;7.246;2024-03-22T11:25:12;15.90;99.90
68051;DHT22;54839;51.364;7.246;2024-03-22T11:27:38;15.90;99.90
68051;DHT22;54839;51.364;7.246;2024-03-22T11:30:04;16.00;99.90
68051;DHT22;54839;51.364;7.246;2024-03-22T11:32:30;15.80;99.90
68051;DHT22;54839;51.364;7.246;2024-03-22T11:34:56;15.90;99.90
68051;DHT22;54839;51.364;7.246;2024-03-22T11:37:22;16.10;99.90
68051;DHT22;54839;51.364;7.246;2024-03-22T11:39:48;16.00;99.90
68051;DHT22;54839;51.364;7.246;2024-03-22T11:42:15;16.30;99.90
68051;DHT22;54839;51.364;7.246;2024-03-22T11:44:41;16.50;99.90
68051;DHT22;54839;51.364;7.246;2024-03-22T11:47:08;16.90;99.90
68051;DHT22;54839;51.364;7.246;2024-03-22T11:49:34;16.90;99.90
68051;DHT22;54839;51.364;7.246;2024-03-22T11:52:00;16.90;99.90
68051;DHT22;54839;51.364;7.246;2024-03-22T11:54:26;16.60;99.90
68051;DHT22;54839;51.364;7.246;2024-03-22T11:56:55;16.30;99.90
68051;DHT22;54839;51.364;7.246;2024-03-22T11:59:21;16.30;99.90
68051;DHT22;54839;51.364;7.246;2024-03-22T12:01:47;15.90;99.90
68051;DHT22;54839;51.364;7.246;2024-03-22T12:04:13;15.70;99.90
68051;DHT22;54839;51.364;7.246;2024-03-22T12:06:45;15.70;99.90
68051;DHT22;54839;51.364;7.246;2024-03-22T12:09:11;15.80;99.90
68051;DHT22;54839;51.364;7.246;2024-03-22T12:11:39;15.80;99.90
68051;DHT22;54839;51.364;7.246;2024-03-22T12:14:05;15.90;99.90
68051;DHT22;54839;51.364;7.246;2024-03-22T12:16:30;15.90;99.90
68051;DHT22;54839;51.364;7.246;2024-03-22T12:18:56;15.90;99.90
68051;DHT22;54839;51.364;7.246;2024-03-22T12:21:21;15.80;99.90
68051;DHT22;54839;51.364;7.246;2024-03-22T12:23:47;16.00;99.90
68051;DHT22;54839;51.364;7.246;2024-03-22T12:26:13;16.00;99.90
68051;DHT22;54839;51.364;7.246;2024-03-22T12:28:38;15.80;99.90
68051;DHT22;54839;51.364;7.246;2024-03-22T12:31:04;15.50;99.90
68051;DHT22;54839;51.364;7.246;2024-03-22T12:33:30;15.40;99.90
68051;DHT22;54839;51.364;7.246;2024-03-22T12:35:56;15.20;99.90
68051;DHT22;54839;51.364;7.246;2024-03-22T12:38:22;15.10;99.90
68051;DHT22;54839;51.364;7.246;2024-03-22T12:40:47;14.80;99.90
68051;DHT22;54839;51.364;7.246;2024-03-22T12:43:14;14.80;99.90
68051;DHT22;54839;51.364;7.246;2024-03-22T12:45:39;14.80;99.90
68051;DHT22;54839;51.364;7.246;2024-03-22T12:48:05;14.60;99.90
68051;DHT22;54839;51.364;7.246;2024-03-22T12:50:31;14.60;99.90
68051;DHT22;54839;51.364;7.246;2024-03-22T12:52:56;14.80;99.90
68051;DHT22;54839;51.364;7.246;2024-03-22T12:55:22;14.90;99.90
68051;DHT22;54839;51.364;7.246;2024-03-22T12:57:48;14.60;99.90
68051;DHT22;54839;51.364;7.246;2024-03-22T13:00:14;14.50;99.90
68051;DHT22;54839;51.364;7.246;2024-03-22T13:02:44;14.40;99.90
68051;DHT22;54839;51.364;7.246;2024-03-22T13:05:10;14.50;99.90
68051;DHT22;54839;51.364;7.246;2024-03-22T13:07:36;14.20;99.90
68051;DHT22;54839;51.364;7.246;2024-03-22T13:10:02;14.30;99.90
68051;DHT22;54839;51.364;7.246;2024-03-22T13:12:28;14.20;99.90
68051;DHT22;54839;51.364;7.246;2024-03-22T13:14:56;14.10;99.90
68051;DHT22;54839;51.364;7.246;2024-03-22T13:17:22;14.10;99.90
68051;DHT22;54839;51.364;7.246;2024-03-22T13:19:49;14.10;99.90
68051;DHT22;54839;51.364;7.246;2024-03-22T13:22:14;14.10;99.90
68051;DHT22;54839;51.364;7.246;2024-03-22T13:24:44;14.00;99.90
68051;DHT22;54839;51.364;7.246;2024-03-22T13:27:10;14.00;99.90
68051;DHT22;54839;51.364;7.246;2024-03-22T13:29:35;14.10;99.90
68051;DHT22;54839;51.364;7.246;2024-03-22T13:32:01;14.20;99.90
68051;DHT22;54839;51.364;7.246;2024-03-22T13:34:27;14.10;99.90
68051;DHT22;54839;51.364;7.246;2024-03-22T13:36:53;14.20;99.90
68051;DHT22;54839;51.364;7.246;2024-03-22T13:39:19;13.80;99.90
68051;DHT22;54839;51.364;7.246;2024-03-22T13:41:45;13.90;99.90
68051;DHT22;54839;51.364;7.246;2024-03-22T13:44:11;13.80;99.90
68051;DHT22;54839;51.364;7.246;2024-03-22T13:46:36;13.60;99.90
68051;DHT22;54839;51.364;7.246;2024-03-22T13:49:14;13.60;99.90
68051;DHT22;54839;51.364;7.246;2024-03-22T13:51:41;13.50;99.90
68051;DHT22;54839;51.364;7.246;2024-03-22T13:54:07;13.20;99.90
68051;DHT22;54839;51.364;7.246;2024-03-22T13:56:32;13.30;99.90
68051;DHT22;54839;51.364;7.246;2024-03-22T13:58:58;13.40;99.90
68051;DHT22;54839;51.364;7.246;2024-03-22T14:01:23;13.30;99.90
68051;DHT22;54839;51.364;7.246;2024-03-22T14:03:49;13.20;99.90
68051;DHT22;54839;51.364;7.246;2024-03-22T14:06:14;13.20;99.90
68051;DHT22;54839;51.364;7.246;2024-03-22T14:08:40;13.30;99.90
68051;DHT22;54839;51.364;7.246;2024-03-22T14:11:06;13.30;99.90
68051;DHT22;54839;51.364;7.246;2024-03-22T14:13:31;13.50;99.90
68051;DHT22;54839;51.364;7.246;2024-03-22T14:15:57;13.20;99.90
68051;DHT22;54839;51.364;7.246;2024-03-22T14:18:22;13.10;99.90
68051;DHT22;54839;51.364;7.246;2024-03-22T14:20:48;13.10;99.90
68051;DHT22;54839;51.364;7.246;2024-03-22T14:23:14;13.10;99.90
68051;DHT22;54839;51.364;7.246;2024-03-22T14:25:39;13.20;99.90
68051;DHT22;54839;51.364;7.246;2024-03-22T14:28:05;13.10;99.90
68051;DHT22;54839;51.364;7.246;2024-03-22T14:30:31;12.80;99.90
68051;DHT22;54839;51.364;7.246;2024-03-22T14:32:56;12.80;99.90
68051;DHT22;54839;51.364;7.246;2024-03-22T14:35:22;12.90;99.90
68051;DHT22;54839;51.364;7.246;2024-03-22T14:37:48;12.70;99.90
68051;DHT22;54839;51.364;7.246;2024-03-22T14:40:14;12.60;99.90
68051;DHT22;54839;51.364;7.246;2024-03-22T14:42:40;12.50;99.90
68051;DHT22;54839;51.364;7.246;2024-03-22T14:45:06;12.60;99.90
68051;DHT22;54839;51.364;7.246;2024-03-22T14:47:38;12.40;99.90
68051;DHT22;54839;51.364;7.246;2024-03-22T14:50:04;12.40;99.90
68051;DHT22;54839;51.364;7.246;2024-03-22T14:52:30;12.50;99.90
68051;DHT22;54839;51.364;7.246;2024-03-22T14:54:55;12.50;99.90
68051;DHT22;54839;51.364;7.246;2024-03-22T14:57:21;12.30;99.90
68051;DHT22;54839;51.364;7.246;2024-03-22T14:59:47;12.40;99.90
68051;DHT22;54839;51.364;7.246;2024-03-22T15:02:14;12.30;99.90
68051;DHT22;54839;51.364;7.246;2024-03-22T15:04:40;12.00;99.90
68051;DHT22;54839;51.364;7.246;2024-03-22T15:07:05;11.80;99.90
68051;DHT22;54839;51.364;7.246;2024-03-22T15:09:31;11.50;99.90
68051;DHT22;54839;51.364;7.246;2024-03-22T15:11:57;11.50;99.90
68051;DHT22;54839;51.364;7.246;2024-03-22T15:14:25;11.20;99.90
68051;DHT22;54839;51.364;7.246;2024-03-22T15:16:55;11.00;99.90
68051;DHT22;54839;51.364;7.246;2024-03-22T15:19:20;10.90;99.90
68051;DHT22;54839;51.364;7.246;2024-03-22T15:21:47;10.90;99.90
68051;DHT22;54839;51.364;7.246;2024-03-22T15:24:12;10.70;99.90
68051;DHT22;54839;51.364;7.246;2024-03-22T15:26:40;10.80;99.90